Time;durP1;ratioP1;P1;durP2;ratioP2;P2;SDS_P1;SDS_P2;PMS_P1;PMS_P2;Temp;Humidity;BMP_temperature;BMP_pressure;BME280_temperature;BME280_humidity;BME280_pressure;Samples;Min_cycle;Max_cycle;Signal;HPM_P1;HPM_P2
2023/05/20 00:00:55;;;;;;;15.00;6.15;;;10.90;99.90;;;;;;5001015;28;89765;-36
2023/05/20 00:03:21;;;;;;;7.68;5.50;;;10.80;99.90;;;;;;5001243;28;89564;-36
2023/05/20 00:05:47;;;;;;;6.45;5.85;;;10.90;99.90;;;;;;5001138;28;88984;-32
2023/05/20 00:08:13;;;;;;;9.98;5.38;;;10.80;99.90;;;;;;5000371;28;90120;-35
2023/05/20 00:10:40;;;;;;;10.52;7.03;;;10.80;99.90;;;;;;5000968;28;89359;-33
2023/05/20 00:13:06;;;;;;;8.60;6.72;;;10.80;99.90;;;;;;5000735;28;89492;-34
2023/05/20 00:15:32;;;;;;;6.75;5.15;;;10.80;99.90;;;;;;5000776;28;88925;-32
2023/05/20 00:18:00;;;;;;;11.50;6.07;;;10.80;99.90;;;;;;5000751;28;89856;-35
2023/05/20 00:20:25;;;;;;;6.97;5.32;;;10.70;99.90;;;;;;4999377;28;90497;-33
2023/05/20 00:22:51;;;;;;;6.72;5.47;;;10.80;99.90;;;;;;5001111;28;90089;-33
2023/05/20 00:25:17;;;;;;;10.25;5.35;;;10.80;99.90;;;;;;5000735;28;89359;-30
2023/05/20 00:27:43;;;;;;;12.50;5.70;;;10.70;99.90;;;;;;5000471;28;90113;-37
2023/05/20 00:30:09;;;;;;;9.15;5.53;;;10.70;99.90;;;;;;5000422;28;89459;-33
2023/05/20 00:32:34;;;;;;;6.75;6.07;;;10.70;99.90;;;;;;4999842;28;89484;-32
2023/05/20 00:35:01;;;;;;;11.98;5.90;;;10.70;99.90;;;;;;5001049;28;87805;-33
2023/05/20 00:37:27;;;;;;;5.90;5.03;;;10.70;99.90;;;;;;5000539;28;90035;-33
2023/05/20 00:39:52;;;;;;;7.45;5.32;;;10.70;99.90;;;;;;5000805;28;89608;-32
2023/05/20 00:42:22;;;;;;;6.35;5.57;;;10.70;99.90;;;;;;5000452;28;89637;-33
2023/05/20 00:44:48;;;;;;;7.05;4.35;;;10.70;99.90;;;;;;5000695;28;88997;-32
2023/05/20 00:47:16;;;;;;;9.48;5.63;;;10.70;99.90;;;;;;4999810;28;90043;-33
2023/05/20 00:49:43;;;;;;;10.15;5.18;;;10.70;99.90;;;;;;5000343;28;89458;-31
2023/05/20 00:52:09;;;;;;;10.70;5.05;;;10.70;99.90;;;;;;5000827;28;89529;-33
2023/05/20 00:54:35;;;;;;;13.93;5.53;;;10.70;99.90;;;;;;5000519;28;89346;-36
2023/05/20 00:57:02;;;;;;;10.13;5.63;;;10.70;99.90;;;;;;4999853;28;90090;-34
2023/05/20 00:59:27;;;;;;;7.88;5.90;;;10.70;99.90;;;;;;5000442;28;90196;-31
2023/05/20 01:01:55;;;;;;;7.97;5.40;;;10.70;99.90;;;;;;5000289;28;89338;-33
2023/05/20 01:04:20;;;;;;;9.48;5.88;;;10.70;99.90;;;;;;5000332;28;88277;-32
2023/05/20 01:06:46;;;;;;;10.10;5.22;;;10.70;99.90;;;;;;5000481;28;91438;-32
2023/05/20 01:09:12;;;;;;;8.60;5.20;;;10.70;99.90;;;;;;4998962;28;90143;-30
2023/05/20 01:11:51;;;;;;;9.88;4.93;;;10.70;99.90;;;;;;5000249;28;90392;-31
2023/05/20 01:14:19;;;;;;;8.45;5.72;;;10.70;99.90;;;;;;5000400;28;89718;-35
2023/05/20 01:16:48;;;;;;;7.25;5.10;;;10.70;99.90;;;;;;5000236;28;90388;-32
2023/05/20 01:19:34;;;;;;;12.07;6.10;;;10.70;99.90;;;;;;4999798;28;90577;-33
2023/05/20 01:22:03;;;;;;;6.20;5.03;;;10.70;99.90;;;;;;4999051;28;89792;-33
2023/05/20 01:24:28;;;;;;;10.10;5.70;;;10.60;99.90;;;;;;4998311;28;90136;-31
2023/05/20 01:26:56;;;;;;;7.20;5.28;;;10.70;99.90;;;;;;5000350;28;89661;-31
2023/05/20 01:29:23;;;;;;;8.10;5.50;;;10.60;99.90;;;;;;4999665;28;90150;-32
2023/05/20 01:31:50;;;;;;;6.38;5.15;;;10.70;99.90;;;;;;4981075;28;89346;-31
2023/05/20 01:34:16;;;;;;;6.70;4.68;;;10.70;99.90;;;;;;4999027;28;89085;-31
2023/05/20 01:36:45;;;;;;;6.30;5.15;;;10.70;99.90;;;;;;4999801;28;90798;-32
2023/05/20 01:39:11;;;;;;;6.82;4.93;;;10.70;99.90;;;;;;4999687;28;89918;-33
2023/05/20 01:41:38;;;;;;;11.55;4.80;;;10.70;99.90;;;;;;4999004;28;89622;-36
2023/05/20 01:44:03;;;;;;;7.60;4.60;;;10.70;99.90;;;;;;4999549;28;87744;-32
2023/05/20 01:46:32;;;;;;;10.18;4.50;;;10.70;99.90;;;;;;4999567;28;90044;-34
2023/05/20 01:48:58;;;;;;;8.55;4.60;;;10.70;99.90;;;;;;4999107;28;89240;-31
2023/05/20 01:51:24;;;;;;;5.55;4.47;;;10.70;99.90;;;;;;4999669;28;90025;-35
2023/05/20 01:53:49;;;;;;;7.80;5.28;;;10.80;99.90;;;;;;4981315;28;89505;-31
2023/05/20 01:56:15;;;;;;;9.15;5.63;;;10.80;99.90;;;;;;4998152;28;90087;-34
2023/05/20 01:58:40;;;;;;;9.32;5.57;;;10.80;99.90;;;;;;4998624;28;89835;-31
2023/05/20 02:01:07;;;;;;;10.00;4.95;;;10.80;99.90;;;;;;4998794;28;90809;-36
2023/05/20 02:03:32;;;;;;;7.50;3.90;;;10.80;99.90;;;;;;4999650;28;89756;-35
2023/05/20 02:05:58;;;;;;;8.88;6.97;;;10.80;99.90;;;;;;4999083;28;90158;-32
2023/05/20 02:08:23;;;;;;;8.07;5.57;;;10.90;99.90;;;;;;4998795;28;88774;-32
2023/05/20 02:10:49;;;;;;;7.05;4.75;;;10.90;99.90;;;;;;4999661;28;90298;-31
2023/05/20 02:13:15;;;;;;;5.35;4.22;;;10.80;99.90;;;;;;4999071;28;87839;-32
2023/05/20 02:15:41;;;;;;;5.60;5.03;;;10.90;99.90;;;;;;4998963;28;90329;-33
2023/05/20 02:18:07;;;;;;;8.02;4.95;;;10.90;99.90;;;;;;4998527;28;90077;-32
2023/05/20 02:20:35;;;;;;;6.43;5.05;;;10.80;99.90;;;;;;4999012;28;89365;-36
2023/05/20 02:23:01;;;;;;;;;;;10.70;99.90;;;;;;4999904;28;89042;-35
2023/05/20 02:25:27;;;;;;;6.38;5.57;;;10.70;99.90;;;;;;5000317;28;89695;-30
2023/05/20 02:27:53;;;;;;;8.02;4.28;;;10.70;99.90;;;;;;4998566;28;89199;-33
2023/05/20 02:30:18;;;;;;;7.22;4.85;;;10.70;99.90;;;;;;4999209;28;88464;-31
2023/05/20 02:32:44;;;;;;;8.30;4.82;;;10.70;99.90;;;;;;4998801;28;89034;-32
2023/05/20 02:35:10;;;;;;;8.48;5.00;;;10.70;99.90;;;;;;5001317;28;89829;-32
2023/05/20 02:37:37;;;;;;;7.28;5.50;;;10.70;99.90;;;;;;5001792;28;89868;-32
2023/05/20 02:40:03;;;;;;;10.83;5.53;;;10.70;99.90;;;;;;5002683;28;89270;-32
2023/05/20 02:42:29;;;;;;;6.28;4.60;;;10.70;99.90;;;;;;4984626;28;89061;-32
2023/05/20 02:44:57;;;;;;;6.82;4.63;;;10.70;99.90;;;;;;5002633;28;90110;-32
2023/05/20 02:47:23;;;;;;;7.18;4.55;;;10.60;99.90;;;;;;5001509;28;90457;-32
2023/05/20 02:49:49;;;;;;;8.45;3.88;;;10.60;99.90;;;;;;5002532;28;90088;-33
2023/05/20 02:52:15;;;;;;;13.02;5.70;;;10.70;99.90;;;;;;5001931;28;89081;-36
2023/05/20 02:54:40;;;;;;;7.22;5.40;;;10.60;99.90;;;;;;5002295;28;90124;-34
2023/05/20 02:57:06;;;;;;;5.60;5.05;;;10.60;99.90;;;;;;5002143;28;90405;-35
2023/05/20 02:59:32;;;;;;;5.78;4.53;;;10.60;99.90;;;;;;5001935;28;89487;-33
2023/05/20 03:01:57;;;;;;;6.88;5.28;;;10.60;99.90;;;;;;5002649;28;88000;-32
2023/05/20 03:04:24;;;;;;;8.32;5.15;;;10.50;99.90;;;;;;5001338;28;90749;-34
2023/05/20 03:06:50;;;;;;;5.93;4.38;;;10.50;99.90;;;;;;5002087;28;89649;-33
2023/05/20 03:09:18;;;;;;;4.65;4.25;;;10.50;99.90;;;;;;5002020;28;89307;-33
2023/05/20 03:11:44;;;;;;;6.82;5.00;;;10.50;99.90;;;;;;5001511;28;90662;-34
2023/05/20 03:14:10;;;;;;;5.15;4.65;;;10.50;99.90;;;;;;5001552;28;89534;-34
2023/05/20 03:16:35;;;;;;;5.18;4.68;;;10.40;99.90;;;;;;5001165;28;89567;-30
2023/05/20 03:19:01;;;;;;;7.35;4.22;;;10.40;99.90;;;;;;5001733;28;90244;-30
2023/05/20 03:21:28;;;;;;;8.00;5.97;;;10.40;99.90;;;;;;5001497;28;89044;-33
2023/05/20 03:23:53;;;;;;;7.60;4.22;;;10.40;99.90;;;;;;5001766;28;90633;-31
2023/05/20 03:26:20;;;;;;;8.80;4.63;;;10.40;99.90;;;;;;5000949;28;89759;-30
2023/05/20 03:28:46;;;;;;;5.50;4.82;;;10.30;99.90;;;;;;5001835;28;89306;-33
2023/05/20 03:31:11;;;;;;;10.27;5.28;;;10.40;99.90;;;;;;5001286;28;87923;-35
2023/05/20 03:33:37;;;;;;;4.45;3.90;;;10.30;99.90;;;;;;5001920;28;90132;-33
2023/05/20 03:36:03;;;;;;;5.75;5.15;;;10.20;99.90;;;;;;5001037;28;90492;-30
2023/05/20 03:38:29;;;;;;;5.68;4.40;;;10.20;99.90;;;;;;5000639;28;90718;-37
2023/05/20 03:40:55;;;;;;;7.72;4.85;;;10.20;99.90;;;;;;5001503;28;88420;-35
2023/05/20 03:43:20;;;;;;;7.38;5.18;;;10.20;99.90;;;;;;5000515;28;90332;-36
2023/05/20 03:45:46;;;;;;;5.38;4.72;;;10.20;99.90;;;;;;5000938;28;89623;-32
2023/05/20 03:48:11;;;;;;;11.27;4.15;;;10.20;99.90;;;;;;5000813;28;89409;-32
2023/05/20 03:50:37;;;;;;;8.77;3.92;;;10.20;99.90;;;;;;5001074;28;87852;-35
2023/05/20 03:53:03;;;;;;;9.15;5.32;;;10.30;99.90;;;;;;5001000;28;91365;-30
2023/05/20 03:55:28;;;;;;;4.53;4.13;;;10.20;99.90;;;;;;5000759;28;89671;-35
2023/05/20 03:57:54;;;;;;;4.70;4.03;;;10.20;99.90;;;;;;5001465;28;89686;-35
2023/05/20 04:00:20;;;;;;;6.93;3.95;;;10.20;99.90;;;;;;5000373;28;89926;-36
2023/05/20 04:02:45;;;;;;;4.55;3.35;;;10.20;99.90;;;;;;5000755;28;90083;-34
2023/05/20 04:05:11;;;;;;;5.38;4.43;;;10.20;99.90;;;;;;5001026;28;91552;-34
2023/05/20 04:07:37;;;;;;;5.35;3.58;;;10.20;99.90;;;;;;5001284;28;89405;-32
2023/05/20 04:10:03;;;;;;;9.13;4.13;;;10.20;99.90;;;;;;5001430;28;88043;-31
2023/05/20 04:12:31;;;;;;;8.13;3.53;;;10.30;99.90;;;;;;5000135;28;90144;-31
2023/05/20 04:15:00;;;;;;;4.50;4.10;;;10.30;99.90;;;;;;5000555;28;89007;-31
2023/05/20 04:17:28;;;;;;;5.50;3.50;;;10.30;99.90;;;;;;5069005;22;89694;-34
2023/05/20 04:19:56;;;;;;;4.95;3.50;;;10.20;99.90;;;;;;5041334;27;88529;-34
2023/05/20 04:22:22;;;;;;;8.20;3.42;;;10.30;99.90;;;;;;5040651;27;88595;-32
2023/05/20 04:24:48;;;;;;;4.68;3.78;;;10.20;99.90;;;;;;5040038;27;90353;-35
2023/05/20 04:27:15;;;;;;;5.65;3.80;;;10.20;99.90;;;;;;5041265;27;90554;-32
2023/05/20 04:29:44;;;;;;;4.57;3.95;;;10.20;99.90;;;;;;5040758;27;88314;-31
2023/05/20 04:32:13;;;;;;;8.25;4.22;;;10.30;99.90;;;;;;5041323;27;90459;-34
2023/05/20 04:34:39;;;;;;;5.30;3.17;;;10.40;99.90;;;;;;5040954;27;88780;-34
2023/05/20 04:37:06;;;;;;;3.80;3.42;;;10.60;99.90;;;;;;5040360;27;88175;-34
2023/05/20 04:39:32;;;;;;;5.07;3.88;;;10.80;99.90;;;;;;5041307;27;89561;-33
2023/05/20 04:41:58;;;;;;;5.47;3.10;;;10.90;99.90;;;;;;5041157;27;91622;-32
2023/05/20 04:44:25;;;;;;;4.78;4.07;;;11.10;99.90;;;;;;5040646;27;89390;-36
2023/05/20 04:46:51;;;;;;;6.78;3.88;;;11.20;99.90;;;;;;5040652;27;89568;-33
2023/05/20 04:49:17;;;;;;;3.20;2.90;;;11.40;99.90;;;;;;5040143;27;90483;-33
2023/05/20 04:51:43;;;;;;;5.60;3.38;;;11.50;99.90;;;;;;5040262;27;90364;-35
2023/05/20 04:54:09;;;;;;;3.75;3.45;;;11.70;99.90;;;;;;5040721;27;90149;-32
2023/05/20 04:56:35;;;;;;;3.22;2.65;;;11.80;99.90;;;;;;5040368;27;89461;-31
2023/05/20 04:59:01;;;;;;;4.13;3.53;;;11.90;99.90;;;;;;5040539;27;89245;-36
2023/05/20 05:01:26;;;;;;;5.32;3.42;;;12.00;99.90;;;;;;5039819;27;91779;-38
2023/05/20 05:03:52;;;;;;;4.63;3.03;;;12.20;99.90;;;;;;5040408;27;89685;-32
2023/05/20 05:06:17;;;;;;;4.57;2.88;;;12.30;99.90;;;;;;5040843;27;90191;-33
2023/05/20 05:08:43;;;;;;;3.75;3.15;;;12.60;99.90;;;;;;5040691;27;88516;-32
2023/05/20 05:11:09;;;;;;;5.43;3.83;;;12.60;99.90;;;;;;5040444;27;89774;-36
2023/05/20 05:13:34;;;;;;;3.38;2.53;;;12.80;99.90;;;;;;5039261;27;90478;-35
2023/05/20 05:16:01;;;;;;;3.95;3.47;;;12.90;99.90;;;;;;5040153;27;90430;-33
2023/05/20 05:18:27;;;;;;;3.33;2.88;;;13.00;99.90;;;;;;5040216;27;89708;-31
2023/05/20 05:21:00;;;;;;;2.70;2.15;;;13.10;99.90;;;;;;5039843;27;90223;-31
2023/05/20 05:23:26;;;;;;;3.47;2.03;;;13.20;99.90;;;;;;5039697;27;90913;-31
2023/05/20 05:25:52;;;;;;;4.22;2.65;;;13.30;99.90;;;;;;5026538;27;89182;-31
2023/05/20 05:28:18;;;;;;;3.30;2.67;;;13.30;99.90;;;;;;5020290;28;90324;-30
2023/05/20 05:30:44;;;;;;;4.35;2.70;;;13.40;99.90;;;;;;5020053;28;89888;-32
2023/05/20 05:33:09;;;;;;;6.07;3.83;;;13.40;99.90;;;;;;5019286;28;90240;-36
2023/05/20 05:35:35;;;;;;;3.15;2.53;;;13.50;99.90;;;;;;5019566;28;89928;-34
2023/05/20 05:38:00;;;;;;;3.83;2.72;;;13.50;99.90;;;;;;5019220;28;90305;-34
2023/05/20 05:40:26;;;;;;;4.10;2.67;;;13.50;99.90;;;;;;5019705;28;89805;-31
2023/05/20 05:42:52;;;;;;;2.33;2.13;;;13.60;99.90;;;;;;5019562;28;90107;-30
2023/05/20 05:45:18;;;;;;;3.78;2.50;;;13.60;99.90;;;;;;5017736;28;89808;-34
2023/05/20 05:47:43;;;;;;;2.53;1.83;;;13.70;99.90;;;;;;5019011;28;89620;-34
2023/05/20 05:50:09;;;;;;;2.92;1.75;;;13.70;99.90;;;;;;5019135;28;89857;-33
2023/05/20 05:52:35;;;;;;;4.03;3.13;;;13.90;99.90;;;;;;5019536;27;91073;-32
2023/05/20 05:55:01;;;;;;;3.25;2.78;;;13.80;99.90;;;;;;5019872;28;88570;-32
2023/05/20 05:57:27;;;;;;;3.00;2.30;;;13.90;99.90;;;;;;5019667;27;89143;-35
2023/05/20 05:59:52;;;;;;;2.55;2.30;;;13.90;99.90;;;;;;5018588;28;89996;-35
2023/05/20 06:02:18;;;;;;;3.05;2.60;;;14.00;99.90;;;;;;5018368;28;90695;-35
2023/05/20 06:04:43;;;;;;;2.47;2.15;;;14.20;99.90;;;;;;5019352;28;89481;-32
2023/05/20 06:07:09;;;;;;;2.63;2.42;;;14.20;99.90;;;;;;5019035;28;88188;-33
2023/05/20 06:09:35;;;;;;;5.35;3.10;;;14.30;99.90;;;;;;5019121;27;89728;-31
2023/05/20 06:12:01;;;;;;;5.68;1.92;;;14.30;99.90;;;;;;5019207;28;89779;-33
2023/05/20 06:14:26;;;;;;;2.03;1.83;;;14.40;99.90;;;;;;5019817;28;89561;-32
2023/05/20 06:16:52;;;;;;;2.47;2.10;;;14.60;99.90;;;;;;5018962;28;88073;-33
2023/05/20 06:19:18;;;;;;;2.65;2.45;;;14.60;99.90;;;;;;5018927;28;90298;-33
2023/05/20 06:21:43;;;;;;;3.30;2.47;;;14.70;99.90;;;;;;5019656;28;89922;-31
2023/05/20 06:24:09;;;;;;;2.92;2.70;;;14.80;99.90;;;;;;5019361;28;88842;-30
2023/05/20 06:26:34;;;;;;;3.45;2.42;;;14.90;99.90;;;;;;5018951;28;88239;-32
2023/05/20 06:29:02;;;;;;;6.20;2.38;;;15.00;99.90;;;;;;5018074;28;90532;-33
2023/05/20 06:31:28;;;;;;;2.75;2.33;;;15.10;99.90;;;;;;5019453;27;89109;-31
2023/05/20 06:33:54;;;;;;;5.90;2.30;;;15.30;99.90;;;;;;5019043;27;90037;-31
2023/05/20 06:36:20;;;;;;;4.90;2.40;;;15.40;94.30;;;;;;5020481;27;89482;-31
2023/05/20 06:38:46;;;;;;;2.22;1.80;;;15.40;92.20;;;;;;5027577;27;90336;-35
2023/05/20 06:41:12;;;;;;;3.45;2.60;;;15.60;97.00;;;;;;5028826;27;88627;-32
2023/05/20 06:43:39;;;;;;;1.85;1.75;;;15.60;95.70;;;;;;5031031;27;89822;-35
2023/05/20 06:46:05;;;;;;;5.00;2.55;;;15.70;94.70;;;;;;5039109;27;88128;-32
2023/05/20 06:48:30;;;;;;;3.72;2.47;;;15.70;87.40;;;;;;5039455;27;89525;-31
2023/05/20 06:50:56;;;;;;;2.95;2.40;;;15.80;90.70;;;;;;5038755;27;89401;-30
2023/05/20 06:53:22;;;;;;;2.65;2.25;;;15.90;91.50;;;;;;5038485;27;90762;-31
2023/05/20 06:55:47;;;;;;;4.95;2.72;;;15.90;89.20;;;;;;5038990;27;88449;-31
2023/05/20 06:58:13;;;;;;;4.80;2.78;;;16.00;86.70;;;;;;5038781;27;89873;-32
2023/05/20 07:00:38;;;;;;;4.07;2.83;;;16.10;89.30;;;;;;5038254;27;89831;-32
2023/05/20 07:03:04;;;;;;;4.32;2.78;;;16.10;86.50;;;;;;5039294;27;89064;-31
2023/05/20 07:05:30;;;;;;;6.57;3.63;;;16.20;83.60;;;;;;5038832;27;90523;-34
2023/05/20 07:07:56;;;;;;;6.97;3.80;;;16.30;84.40;;;;;;5028820;27;90264;-32
2023/05/20 07:10:22;;;;;;;3.72;3.42;;;16.40;85.60;;;;;;5026853;27;89522;-36
2023/05/20 07:12:47;;;;;;;4.30;2.97;;;16.50;83.20;;;;;;5032302;27;89561;-35
2023/05/20 07:15:13;;;;;;;4.40;3.45;;;16.70;83.90;;;;;;5025681;27;89878;-32
2023/05/20 07:17:39;;;;;;;6.45;3.65;;;16.70;83.20;;;;;;5018446;27;91360;-33
2023/05/20 07:20:05;;;;;;;4.10;3.30;;;16.80;81.00;;;;;;5016259;28;89473;-33
2023/05/20 07:22:31;;;;;;;6.45;3.45;;;16.70;80.70;;;;;;5018675;28;89979;-32
2023/05/20 07:24:56;;;;;;;3.35;2.42;;;16.80;82.00;;;;;;5019248;28;88851;-31
2023/05/20 07:27:22;;;;;;;3.63;2.92;;;17.00;79.10;;;;;;5018959;28;90770;-34
2023/05/20 07:29:48;;;;;;;3.15;2.75;;;16.90;80.30;;;;;;5019043;28;89923;-35
2023/05/20 07:32:13;;;;;;;4.45;3.95;;;16.80;81.50;;;;;;5019235;28;89548;-36
2023/05/20 07:34:39;;;;;;;5.35;3.28;;;16.80;81.30;;;;;;5020101;28;89516;-33
2023/05/20 07:37:05;;;;;;;4.38;3.42;;;16.90;80.00;;;;;;5000480;28;90168;-33
2023/05/20 07:39:30;;;;;;;4.18;3.30;;;17.20;84.30;;;;;;5021371;27;90223;-35
2023/05/20 07:41:56;;;;;;;3.63;3.08;;;17.30;79.40;;;;;;5029191;27;90978;-35
2023/05/20 07:44:22;;;;;;;3.20;2.72;;;17.20;80.50;;;;;;5039898;27;89685;-32
2023/05/20 07:46:48;;;;;;;9.20;2.65;;;17.20;79.40;;;;;;5038558;27;90097;-32
2023/05/20 07:49:14;;;;;;;3.75;2.47;;;17.20;81.20;;;;;;5034568;27;88923;-35
2023/05/20 07:51:40;;;;;;;3.15;2.72;;;17.50;85.90;;;;;;5018877;28;89452;-31
2023/05/20 07:54:05;;;;;;;4.45;3.05;;;17.40;81.90;;;;;;5018653;27;88145;-35
2023/05/20 07:56:32;;;;;;;6.32;3.70;;;17.60;79.50;;;;;;5019520;28;90353;-35
2023/05/20 07:58:58;;;;;;;4.47;3.10;;;17.50;80.90;;;;;;5018699;27;90073;-35
2023/05/20 08:01:25;;;;;;;3.72;2.90;;;17.70;78.80;;;;;;5018957;27;89352;-32
2023/05/20 08:03:51;;;;;;;3.70;2.58;;;17.80;78.10;;;;;;5019483;27;88815;-33
2023/05/20 08:06:19;;;;;;;5.60;3.88;;;17.90;78.50;;;;;;5018179;27;90356;-35
2023/05/20 08:08:45;;;;;;;3.83;3.40;;;17.80;78.00;;;;;;5019159;27;89416;-33
2023/05/20 08:11:11;;;;;;;5.32;3.53;;;17.90;76.30;;;;;;5018769;27;89561;-34
2023/05/20 08:13:37;;;;;;;3.90;3.25;;;17.80;74.90;;;;;;5019320;28;88978;-37
2023/05/20 08:16:04;;;;;;;4.43;3.70;;;18.00;77.90;;;;;;5019632;28;89841;-32
2023/05/20 08:18:31;;;;;;;5.80;3.93;;;18.00;77.20;;;;;;5018469;28;88646;-33
2023/05/20 08:20:57;;;;;;;4.93;3.35;;;17.90;76.00;;;;;;5018635;27;89184;-35
2023/05/20 08:23:23;;;;;;;3.83;3.50;;;18.20;78.70;;;;;;5019379;28;89407;-34
2023/05/20 08:25:49;;;;;;;4.13;3.83;;;18.00;74.70;;;;;;5018769;27;90309;-36
2023/05/20 08:28:16;;;;;;;3.85;3.55;;;18.10;74.90;;;;;;5017840;28;91099;-31
2023/05/20 08:30:41;;;;;;;4.38;3.97;;;18.20;76.10;;;;;;5018784;28;90508;-33
2023/05/20 08:33:07;;;;;;;5.85;4.07;;;18.20;75.20;;;;;;5018423;27;88820;-31
2023/05/20 08:35:33;;;;;;;3.58;3.28;;;18.20;73.30;;;;;;5016595;28;90290;-32
2023/05/20 08:38:00;;;;;;;4.35;3.78;;;18.40;74.90;;;;;;5018529;28;90309;-33
2023/05/20 08:40:26;;;;;;;5.13;3.95;;;18.50;75.90;;;;;;5018360;27;89815;-34
2023/05/20 08:42:52;;;;;;;5.00;4.50;;;18.60;74.10;;;;;;5018905;28;89268;-34
2023/05/20 08:45:20;;;;;;;4.07;3.67;;;18.60;74.30;;;;;;5018449;28;90697;-37
2023/05/20 08:47:46;;;;;;;5.35;3.17;;;18.60;75.10;;;;;;5017774;27;89595;-36
2023/05/20 08:50:13;;;;;;;5.32;4.00;;;18.90;75.10;;;;;;5018532;28;89801;-34
2023/05/20 08:52:44;;;;;;;5.03;4.47;;;18.90;73.60;;;;;;5018080;27;89259;-33
2023/05/20 08:55:21;;;;;;;6.63;3.95;;;18.90;73.20;;;;;;5017916;27;90378;-32
2023/05/20 08:57:50;;;;;;;4.18;3.60;;;18.80;72.00;;;;;;5017615;27;89701;-34
2023/05/20 09:00:17;;;;;;;5.10;3.78;;;19.00;72.70;;;;;;5029855;27;90484;-35
2023/05/20 09:02:45;;;;;;;3.85;3.45;;;18.90;72.30;;;;;;5058975;27;89097;-36
2023/05/20 09:05:10;;;;;;;9.68;4.57;;;19.00;73.00;;;;;;5058068;27;91007;-35
2023/05/20 09:07:36;;;;;;;5.75;4.35;;;19.10;74.30;;;;;;5057177;27;89502;-32
2023/05/20 09:10:02;;;;;;;4.05;3.25;;;19.10;73.80;;;;;;5059030;27;89051;-34
2023/05/20 09:12:28;;;;;;;5.03;3.40;;;19.40;74.00;;;;;;5057624;27;90146;-32
2023/05/20 09:14:54;;;;;;;10.52;4.10;;;19.10;71.80;;;;;;5058045;27;89746;-36
2023/05/20 09:17:21;;;;;;;3.83;3.50;;;19.20;72.40;;;;;;5057011;27;91619;-33
2023/05/20 09:19:49;;;;;;;4.45;3.67;;;19.10;70.00;;;;;;5058946;27;88496;-32
2023/05/20 09:22:21;;;;;;;3.92;3.63;;;19.20;71.10;;;;;;5058734;27;88375;-36
2023/05/20 09:24:47;;;;;;;8.30;4.00;;;19.40;71.40;;;;;;5058147;27;88875;-32
2023/05/20 09:27:13;;;;;;;4.78;3.70;;;19.10;70.60;;;;;;5057972;27;89431;-32
2023/05/20 09:29:38;;;;;;;4.63;2.80;;;19.40;72.40;;;;;;5038700;27;89524;-36
2023/05/20 09:32:04;;;;;;;4.55;3.72;;;19.50;69.00;;;;;;5040432;27;89430;-30
2023/05/20 09:34:30;;;;;;;5.93;3.15;;;19.60;69.50;;;;;;5057654;27;90764;-32
2023/05/20 09:36:58;;;;;;;5.13;3.40;;;19.60;69.90;;;;;;5057319;27;90310;-33
2023/05/20 09:39:26;;;;;;;;;;;19.50;68.80;;;;;;5058446;27;89465;-33
2023/05/20 09:42:00;;;;;;;12.40;3.92;;;19.20;68.90;;;;;;5059088;27;89203;-31
2023/05/20 09:44:27;;;;;;;7.95;3.92;;;19.00;69.20;;;;;;5055830;27;90489;-34
2023/05/20 09:46:55;;;;;;;6.50;3.42;;;19.00;69.30;;;;;;5056890;27;89515;-35
2023/05/20 09:49:22;;;;;;;9.30;3.90;;;19.50;70.90;;;;;;5057328;27;89514;-34
2023/05/20 09:51:48;;;;;;;5.40;3.33;;;19.50;69.90;;;;;;5057603;27;88456;-35
2023/05/20 09:54:18;;;;;;;7.50;2.78;;;19.60;69.20;;;;;;5057080;27;91621;-33
2023/05/20 09:56:45;;;;;;;3.58;3.03;;;19.80;69.00;;;;;;5057166;27;90411;-33
2023/05/20 09:59:11;;;;;;;6.03;3.80;;;19.80;69.20;;;;;;5038991;27;89080;-33
2023/05/20 10:01:36;;;;;;;5.22;3.40;;;19.70;68.50;;;;;;5026306;27;89293;-34
2023/05/20 10:04:06;;;;;;;3.80;3.33;;;19.60;67.40;;;;;;5026942;27;90590;-36
2023/05/20 10:06:55;;;;;;;7.68;4.47;;;19.50;68.70;;;;;;5026261;27;89858;-34
2023/05/20 10:09:41;;;;;;;5.57;3.42;;;19.60;69.90;;;;;;5009831;27;90533;-35
2023/05/20 10:12:20;;;;;;;5.18;3.28;;;19.50;66.60;;;;;;5017280;28;89962;-33
2023/05/20 10:15:17;;;;;;;4.68;3.83;;;19.40;66.90;;;;;;5016550;28;90868;-32
2023/05/20 10:18:01;;;;;;;5.60;3.45;;;19.70;65.80;;;;;;5015298;28;89057;-30
2023/05/20 10:20:26;;;;;;;3.83;3.00;;;20.00;67.90;;;;;;5019544;27;89496;-34
2023/05/20 10:22:56;;;;;;;4.00;3.30;;;19.70;67.10;;;;;;5031025;27;88759;-32
2023/05/20 10:25:28;;;;;;;4.05;3.08;;;19.40;66.30;;;;;;5036205;27;89626;-31
2023/05/20 10:28:36;;;;;;;4.97;2.63;;;19.10;67.90;;;;;;5036187;27;90354;-34
2023/05/20 10:31:02;;;;;;;;;;;19.10;68.20;;;;;;5010621;27;88747;-35
2023/05/20 10:33:28;;;;;;;4.10;3.58;;;18.90;67.20;;;;;;5037639;27;89784;-34
2023/05/20 10:35:59;;;;;;;3.08;2.78;;;19.00;68.10;;;;;;5036903;27;90804;-34
2023/05/20 10:38:25;;;;;;;3.88;3.33;;;19.20;69.80;;;;;;5036852;27;89659;-29
2023/05/20 10:40:51;;;;;;;5.45;3.75;;;19.30;65.90;;;;;;5035901;27;89526;-31
2023/05/20 10:43:29;;;;;;;5.90;3.58;;;19.50;66.30;;;;;;5036770;27;88118;-35
2023/05/20 10:45:56;;;;;;;5.47;4.00;;;19.30;67.80;;;;;;5017894;27;90226;-34
2023/05/20 10:48:28;;;;;;;5.40;3.53;;;19.50;68.60;;;;;;5035614;27;90520;-33
2023/05/20 10:50:56;;;;;;;2.70;2.50;;;19.70;66.00;;;;;;5036431;27;89180;-33
2023/05/20 10:53:23;;;;;;;5.40;3.67;;;19.60;65.40;;;;;;5036264;27;88578;-35
2023/05/20 10:55:50;;;;;;;5.68;4.20;;;19.40;64.80;;;;;;5037202;27;89860;-31
2023/05/20 10:58:17;;;;;;;3.85;2.75;;;19.30;65.80;;;;;;5038321;27;90303;-34
2023/05/20 11:00:43;;;;;;;3.77;3.47;;;19.40;66.70;;;;;;5036490;27;90465;-32
2023/05/20 11:03:11;;;;;;;4.00;3.55;;;19.70;66.00;;;;;;5039281;27;89414;-33
2023/05/20 11:05:38;;;;;;;4.20;3.90;;;19.70;65.30;;;;;;5039536;27;90441;-32
2023/05/20 11:08:06;;;;;;;3.67;3.35;;;19.70;65.40;;;;;;5039629;27;88857;-34
2023/05/20 11:10:35;;;;;;;;;;;19.70;65.80;;;;;;5040386;27;89466;-34
2023/05/20 11:13:04;;;;;;;3.90;3.60;;;19.40;66.30;;;;;;5041253;27;89611;-32
2023/05/20 11:15:32;;;;;;;4.13;3.72;;;19.20;67.60;;;;;;5020042;27;89805;-31
2023/05/20 11:18:02;;;;;;;4.53;4.13;;;19.10;66.20;;;;;;5019707;28;90881;-32
2023/05/20 11:20:28;;;;;;;6.07;3.95;;;18.90;67.30;;;;;;5019575;28;89891;-33
2023/05/20 11:22:55;;;;;;;4.85;3.92;;;18.80;67.80;;;;;;5018583;27;89417;-34
2023/05/20 11:25:24;;;;;;;5.03;4.57;;;19.00;67.70;;;;;;5019293;28;89406;-34
2023/05/20 11:27:50;;;;;;;4.38;3.55;;;19.40;68.60;;;;;;5018879;27;90045;-33
2023/05/20 11:30:19;;;;;;;7.18;3.92;;;19.50;67.80;;;;;;5019268;27;90269;-33
2023/05/20 11:33:02;;;;;;;11.52;4.82;;;19.70;66.10;;;;;;5019093;27;89193;-34
2023/05/20 11:35:30;;;;;;;4.03;3.63;;;19.60;65.00;;;;;;5018857;27;90523;-34
2023/05/20 11:38:05;;;;;;;6.80;3.60;;;19.70;64.40;;;;;;5019449;27;89813;-30
2023/05/20 11:40:32;;;;;;;4.05;3.55;;;20.00;66.70;;;;;;5019200;27;88980;-32
2023/05/20 11:43:00;;;;;;;4.03;3.20;;;19.90;66.50;;;;;;5019474;27;89116;-31
2023/05/20 11:45:28;;;;;;;6.75;3.80;;;19.90;65.40;;;;;;5019097;27;89982;-30
2023/05/20 11:48:02;;;;;;;6.65;3.40;;;19.60;65.60;;;;;;5018670;28;90897;-31
2023/05/20 11:50:39;;;;;;;7.47;4.22;;;19.50;66.80;;;;;;5019029;27;90978;-35
2023/05/20 11:53:06;;;;;;;4.15;3.17;;;19.60;66.30;;;;;;5020065;28;89216;-33
2023/05/20 11:55:33;;;;;;;8.13;3.77;;;20.10;66.00;;;;;;5018849;27;91447;-31
2023/05/20 11:57:59;;;;;;;3.45;2.95;;;19.90;66.70;;;;;;5018448;27;89738;-29
2023/05/20 12:00:25;;;;;;;4.10;3.70;;;19.80;66.10;;;;;;5018587;27;89634;-35
2023/05/20 12:02:51;;;;;;;5.32;3.75;;;19.80;66.40;;;;;;5019291;28;89806;-33
2023/05/20 12:05:16;;;;;;;5.80;3.38;;;19.90;66.30;;;;;;5017822;28;90246;-35
2023/05/20 12:07:42;;;;;;;5.18;3.75;;;19.80;65.80;;;;;;5017815;27;89362;-30
2023/05/20 12:10:09;;;;;;;3.83;2.92;;;19.70;66.40;;;;;;5018042;27;89405;-34
2023/05/20 12:12:35;;;;;;;3.78;3.45;;;20.10;65.50;;;;;;5019072;27;89725;-31
2023/05/20 12:15:05;;;;;;;3.60;3.15;;;19.90;65.40;;;;;;5017277;28;90932;-31
2023/05/20 12:17:51;;;;;;;3.05;2.30;;;19.80;65.20;;;;;;5016984;27;90307;-31
2023/05/20 12:20:22;;;;;;;4.03;3.28;;;19.70;65.70;;;;;;5017468;28;89910;-30
2023/05/20 12:22:48;;;;;;;9.90;4.03;;;19.60;64.50;;;;;;5019023;28;89327;-32
2023/05/20 12:25:15;;;;;;;8.05;3.35;;;19.90;66.10;;;;;;5018039;28;91716;-31
2023/05/20 12:27:46;;;;;;;4.43;2.92;;;19.70;65.40;;;;;;5018489;27;89524;-34
2023/05/20 12:30:14;;;;;;;4.07;2.92;;;19.50;63.70;;;;;;5018036;27;89373;-35
2023/05/20 12:32:42;;;;;;;8.35;3.60;;;19.40;65.60;;;;;;5018677;27;88173;-32
2023/05/20 12:35:08;;;;;;;3.30;3.00;;;19.60;68.00;;;;;;5018072;27;90115;-31
2023/05/20 12:37:36;;;;;;;4.50;3.47;;;19.70;65.70;;;;;;5017461;27;91042;-32
2023/05/20 12:40:06;;;;;;;3.47;3.13;;;19.70;65.10;;;;;;5018008;27;89053;-33
2023/05/20 12:42:41;;;;;;;3.78;3.03;;;19.60;64.50;;;;;;5018366;27;88188;-32
2023/05/20 12:45:08;;;;;;;3.03;2.72;;;19.40;64.60;;;;;;5017819;28;90400;-33
2023/05/20 12:47:34;;;;;;;3.22;2.92;;;19.50;65.70;;;;;;5017444;28;89659;-35